sensor_id;sensor_type;location;lat;lon;timestamp;P1;durP1;ratioP1;P2;durP2;ratioP2
3547;SDS011;1788;49.400;11.092;2024-02-04T00:02:21;2.33;;;2.13;;
3547;SDS011;1788;49.400;11.092;2024-02-04T00:04:48;2.60;;;2.23;;
3547;SDS011;1788;49.400;11.092;2024-02-04T00:07:15;2.07;;;1.93;;
3547;SDS011;1788;49.400;11.092;2024-02-04T00:09:42;2.17;;;2.03;;
3547;SDS011;1788;49.400;11.092;2024-02-04T00:12:08;1.90;;;1.80;;
3547;SDS011;1788;49.400;11.092;2024-02-04T00:14:35;4.60;;;2.30;;
3547;SDS011;1788;49.400;11.092;2024-02-04T00:17:02;1.73;;;1.63;;
3547;SDS011;1788;49.400;11.092;2024-02-04T00:19:29;1.70;;;1.60;;
3547;SDS011;1788;49.400;11.092;2024-02-04T00:21:55;3.03;;;1.70;;
3547;SDS011;1788;49.400;11.092;2024-02-04T00:24:23;2.17;;;1.60;;
3547;SDS011;1788;49.400;11.092;2024-02-04T00:26:49;2.40;;;2.00;;
3547;SDS011;1788;49.400;11.092;2024-02-04T00:29:16;1.90;;;1.80;;
3547;SDS011;1788;49.400;11.092;2024-02-04T00:31:43;1.97;;;1.87;;
3547;SDS011;1788;49.400;11.092;2024-02-04T00:34:11;1.70;;;1.63;;
3547;SDS011;1788;49.400;11.092;2024-02-04T00:36:37;1.73;;;1.63;;
3547;SDS011;1788;49.400;11.092;2024-02-04T00:39:05;2.20;;;2.00;;
3547;SDS011;1788;49.400;11.092;2024-02-04T00:41:33;1.67;;;1.57;;
3547;SDS011;1788;49.400;11.092;2024-02-04T00:44:00;1.93;;;1.83;;
3547;SDS011;1788;49.400;11.092;2024-02-04T00:46:27;2.00;;;1.80;;
3547;SDS011;1788;49.400;11.092;2024-02-04T00:48:54;1.77;;;1.70;;
3547;SDS011;1788;49.400;11.092;2024-02-04T00:51:21;1.60;;;1.50;;
3547;SDS011;1788;49.400;11.092;2024-02-04T00:53:47;1.50;;;1.40;;
3547;SDS011;1788;49.400;11.092;2024-02-04T00:56:14;1.43;;;1.33;;
3547;SDS011;1788;49.400;11.092;2024-02-04T00:58:42;1.60;;;1.57;;
3547;SDS011;1788;49.400;11.092;2024-02-04T01:01:08;1.77;;;1.70;;
3547;SDS011;1788;49.400;11.092;2024-02-04T01:03:35;1.33;;;1.23;;
3547;SDS011;1788;49.400;11.092;2024-02-04T01:06:02;1.80;;;1.70;;
3547;SDS011;1788;49.400;11.092;2024-02-04T01:08:29;1.40;;;1.30;;
3547;SDS011;1788;49.400;11.092;2024-02-04T01:10:58;1.23;;;1.20;;
3547;SDS011;1788;49.400;11.092;2024-02-04T01:13:25;1.70;;;1.60;;
3547;SDS011;1788;49.400;11.092;2024-02-04T01:15:52;1.50;;;1.40;;
3547;SDS011;1788;49.400;11.092;2024-02-04T01:18:18;1.37;;;1.27;;
3547;SDS011;1788;49.400;11.092;2024-02-04T01:20:46;1.33;;;1.23;;
3547;SDS011;1788;49.400;11.092;2024-02-04T01:23:12;1.50;;;1.40;;
3547;SDS011;1788;49.400;11.092;2024-02-04T01:25:40;1.20;;;1.10;;
3547;SDS011;1788;49.400;11.092;2024-02-04T01:28:07;1.60;;;1.50;;
3547;SDS011;1788;49.400;11.092;2024-02-04T01:30:34;1.47;;;1.37;;
3547;SDS011;1788;49.400;11.092;2024-02-04T01:33:01;1.80;;;1.70;;
3547;SDS011;1788;49.400;11.092;2024-02-04T01:35:28;2.13;;;1.57;;
3547;SDS011;1788;49.400;11.092;2024-02-04T01:37:56;1.90;;;1.80;;
3547;SDS011;1788;49.400;11.092;2024-02-04T01:40:22;1.77;;;1.40;;
3547;SDS011;1788;49.400;11.092;2024-02-04T01:42:49;2.37;;;1.90;;
3547;SDS011;1788;49.400;11.092;2024-02-04T01:45:17;1.73;;;1.63;;
3547;SDS011;1788;49.400;11.092;2024-02-04T01:47:44;2.63;;;1.80;;
3547;SDS011;1788;49.400;11.092;2024-02-04T01:50:10;1.77;;;1.67;;
3547;SDS011;1788;49.400;11.092;2024-02-04T01:52:37;1.83;;;1.73;;
3547;SDS011;1788;49.400;11.092;2024-02-04T01:55:05;1.80;;;1.70;;
3547;SDS011;1788;49.400;11.092;2024-02-04T01:57:32;2.50;;;2.10;;
3547;SDS011;1788;49.400;11.092;2024-02-04T01:59:58;2.00;;;1.60;;
3547;SDS011;1788;49.400;11.092;2024-02-04T02:02:25;1.63;;;1.57;;
3547;SDS011;1788;49.400;11.092;2024-02-04T02:04:51;1.77;;;1.67;;
3547;SDS011;1788;49.400;11.092;2024-02-04T02:07:18;1.90;;;1.80;;
3547;SDS011;1788;49.400;11.092;2024-02-04T02:09:46;1.63;;;1.53;;
3547;SDS011;1788;49.400;11.092;2024-02-04T02:12:13;1.70;;;1.60;;
3547;SDS011;1788;49.400;11.092;2024-02-04T02:17:07;1.60;;;1.50;;
3547;SDS011;1788;49.400;11.092;2024-02-04T02:26:56;2.80;;;1.90;;
3547;SDS011;1788;49.400;11.092;2024-02-04T02:29:24;1.70;;;1.60;;
3547;SDS011;1788;49.400;11.092;2024-02-04T02:31:51;1.77;;;1.70;;
3547;SDS011;1788;49.400;11.092;2024-02-04T02:34:18;1.40;;;1.30;;
3547;SDS011;1788;49.400;11.092;2024-02-04T02:36:45;2.53;;;2.03;;
3547;SDS011;1788;49.400;11.092;2024-02-04T02:41:38;1.60;;;1.50;;
3547;SDS011;1788;49.400;11.092;2024-02-04T02:44:05;1.63;;;1.53;;
3547;SDS011;1788;49.400;11.092;2024-02-04T02:46:31;1.80;;;1.73;;
3547;SDS011;1788;49.400;11.092;2024-02-04T02:48:58;2.20;;;1.60;;
3547;SDS011;1788;49.400;11.092;2024-02-04T02:51:25;1.40;;;1.37;;
3547;SDS011;1788;49.400;11.092;2024-02-04T02:53:52;1.90;;;1.10;;
3547;SDS011;1788;49.400;11.092;2024-02-04T02:56:20;1.83;;;1.57;;
3547;SDS011;1788;49.400;11.092;2024-02-04T02:58:47;1.30;;;1.20;;
3547;SDS011;1788;49.400;11.092;2024-02-04T03:01:14;1.50;;;1.40;;
3547;SDS011;1788;49.400;11.092;2024-02-04T03:03:40;2.13;;;1.73;;
3547;SDS011;1788;49.400;11.092;2024-02-04T03:06:07;2.63;;;1.83;;
3547;SDS011;1788;49.400;11.092;2024-02-04T03:08:34;1.60;;;1.50;;
3547;SDS011;1788;49.400;11.092;2024-02-04T03:11:00;1.60;;;1.50;;
3547;SDS011;1788;49.400;11.092;2024-02-04T03:13:28;1.60;;;1.50;;
3547;SDS011;1788;49.400;11.092;2024-02-04T03:15:56;2.77;;;1.60;;
3547;SDS011;1788;49.400;11.092;2024-02-04T03:18:22;1.70;;;1.60;;
3547;SDS011;1788;49.400;11.092;2024-02-04T03:20:50;1.60;;;1.50;;
3547;SDS011;1788;49.400;11.092;2024-02-04T03:23:16;1.53;;;1.43;;
3547;SDS011;1788;49.400;11.092;2024-02-04T03:25:43;2.00;;;1.90;;
3547;SDS011;1788;49.400;11.092;2024-02-04T03:28:10;1.97;;;1.87;;
3547;SDS011;1788;49.400;11.092;2024-02-04T03:30:36;2.47;;;1.80;;
3547;SDS011;1788;49.400;11.092;2024-02-04T03:33:04;2.30;;;2.10;;
3547;SDS011;1788;49.400;11.092;2024-02-04T03:35:30;2.03;;;1.93;;
3547;SDS011;1788;49.400;11.092;2024-02-04T03:37:57;1.90;;;1.80;;
3547;SDS011;1788;49.400;11.092;2024-02-04T03:40:23;2.37;;;2.03;;
3547;SDS011;1788;49.400;11.092;2024-02-04T03:42:50;2.53;;;1.90;;
3547;SDS011;1788;49.400;11.092;2024-02-04T03:45:17;1.73;;;1.63;;
3547;SDS011;1788;49.400;11.092;2024-02-04T03:47:44;2.60;;;2.10;;
3547;SDS011;1788;49.400;11.092;2024-02-04T03:50:11;2.37;;;2.17;;
3547;SDS011;1788;49.400;11.092;2024-02-04T03:52:38;2.07;;;1.93;;
3547;SDS011;1788;49.400;11.092;2024-02-04T03:55:05;1.90;;;1.80;;
3547;SDS011;1788;49.400;11.092;2024-02-04T03:57:32;2.77;;;1.93;;
3547;SDS011;1788;49.400;11.092;2024-02-04T03:59:58;2.40;;;2.20;;
3547;SDS011;1788;49.400;11.092;2024-02-04T04:02:24;1.57;;;1.50;;
3547;SDS011;1788;49.400;11.092;2024-02-04T04:04:52;3.17;;;2.10;;
3547;SDS011;1788;49.400;11.092;2024-02-04T04:07:18;1.90;;;1.80;;
3547;SDS011;1788;49.400;11.092;2024-02-04T04:09:46;2.67;;;2.23;;
3547;SDS011;1788;49.400;11.092;2024-02-04T04:12:13;1.90;;;1.80;;
3547;SDS011;1788;49.400;11.092;2024-02-04T04:14:41;2.37;;;1.97;;
3547;SDS011;1788;49.400;11.092;2024-02-04T04:17:08;2.30;;;2.10;;
3547;SDS011;1788;49.400;11.092;2024-02-04T04:19:34;2.70;;;1.93;;
3547;SDS011;1788;49.400;11.092;2024-02-04T04:22:02;2.63;;;1.83;;
3547;SDS011;1788;49.400;11.092;2024-02-04T04:24:28;3.23;;;2.07;;
3547;SDS011;1788;49.400;11.092;2024-02-04T04:26:55;2.13;;;1.97;;
3547;SDS011;1788;49.400;11.092;2024-02-04T04:29:22;1.90;;;1.80;;
3547;SDS011;1788;49.400;11.092;2024-02-04T04:31:48;2.17;;;1.90;;
3547;SDS011;1788;49.400;11.092;2024-02-04T04:34:15;3.57;;;2.00;;
3547;SDS011;1788;49.400;11.092;2024-02-04T04:36:42;3.10;;;2.13;;
3547;SDS011;1788;49.400;11.092;2024-02-04T04:39:09;2.20;;;2.03;;
3547;SDS011;1788;49.400;11.092;2024-02-04T04:41:35;2.50;;;2.30;;
3547;SDS011;1788;49.400;11.092;2024-02-04T04:44:03;2.60;;;1.83;;
3547;SDS011;1788;49.400;11.092;2024-02-04T04:46:30;1.93;;;1.83;;
3547;SDS011;1788;49.400;11.092;2024-02-04T04:48:56;2.20;;;2.00;;
3547;SDS011;1788;49.400;11.092;2024-02-04T04:51:23;2.03;;;1.97;;
3547;SDS011;1788;49.400;11.092;2024-02-04T04:53:50;2.30;;;1.93;;
3547;SDS011;1788;49.400;11.092;2024-02-04T04:56:16;1.83;;;1.73;;
3547;SDS011;1788;49.400;11.092;2024-02-04T04:58:43;1.83;;;1.50;;
3547;SDS011;1788;49.400;11.092;2024-02-04T05:01:09;1.20;;;1.10;;
3547;SDS011;1788;49.400;11.092;2024-02-04T05:03:36;1.20;;;1.10;;
3547;SDS011;1788;49.400;11.092;2024-02-04T05:06:03;1.60;;;1.27;;
3547;SDS011;1788;49.400;11.092;2024-02-04T05:08:30;1.27;;;1.17;;
3547;SDS011;1788;49.400;11.092;2024-02-04T05:10:57;1.67;;;1.57;;
3547;SDS011;1788;49.400;11.092;2024-02-04T05:13:23;1.70;;;1.60;;
3547;SDS011;1788;49.400;11.092;2024-02-04T05:15:50;1.47;;;1.30;;
3547;SDS011;1788;49.400;11.092;2024-02-04T05:18:16;1.70;;;1.60;;
3547;SDS011;1788;49.400;11.092;2024-02-04T05:20:44;1.30;;;1.20;;
3547;SDS011;1788;49.400;11.092;2024-02-04T05:23:10;1.30;;;1.20;;
3547;SDS011;1788;49.400;11.092;2024-02-04T05:25:37;1.33;;;1.23;;
3547;SDS011;1788;49.400;11.092;2024-02-04T05:28:04;1.67;;;1.60;;
3547;SDS011;1788;49.400;11.092;2024-02-04T05:30:30;1.00;;;0.90;;
3547;SDS011;1788;49.400;11.092;2024-02-04T05:32:57;1.80;;;1.70;;
3547;SDS011;1788;49.400;11.092;2024-02-04T05:35:23;2.40;;;1.40;;
3547;SDS011;1788;49.400;11.092;2024-02-04T05:37:51;1.13;;;1.03;;
3547;SDS011;1788;49.400;11.092;2024-02-04T05:40:18;1.20;;;1.10;;
3547;SDS011;1788;49.400;11.092;2024-02-04T05:42:45;1.07;;;0.97;;
3547;SDS011;1788;49.400;11.092;2024-02-04T05:45:12;1.20;;;1.10;;
3547;SDS011;1788;49.400;11.092;2024-02-04T05:47:39;1.00;;;0.90;;
3547;SDS011;1788;49.400;11.092;2024-02-04T05:50:05;1.07;;;0.87;;
3547;SDS011;1788;49.400;11.092;2024-02-04T05:52:32;1.10;;;1.00;;
3547;SDS011;1788;49.400;11.092;2024-02-04T05:54:59;1.20;;;1.10;;
3547;SDS011;1788;49.400;11.092;2024-02-04T05:57:25;1.30;;;1.20;;
3547;SDS011;1788;49.400;11.092;2024-02-04T05:59:52;0.87;;;0.77;;
3547;SDS011;1788;49.400;11.092;2024-02-04T06:02:18;1.10;;;1.00;;
3547;SDS011;1788;49.400;11.092;2024-02-04T06:04:46;1.17;;;0.97;;
3547;SDS011;1788;49.400;11.092;2024-02-04T06:07:12;0.87;;;0.77;;
3547;SDS011;1788;49.400;11.092;2024-02-04T06:09:40;0.77;;;0.67;;
3547;SDS011;1788;49.400;11.092;2024-02-04T06:12:06;0.93;;;0.83;;
3547;SDS011;1788;49.400;11.092;2024-02-04T06:14:33;1.03;;;0.93;;
3547;SDS011;1788;49.400;11.092;2024-02-04T06:17:00;1.03;;;0.97;;
3547;SDS011;1788;49.400;11.092;2024-02-04T06:19:26;1.00;;;0.90;;
3547;SDS011;1788;49.400;11.092;2024-02-04T06:21:54;1.00;;;0.90;;
3547;SDS011;1788;49.400;11.092;2024-02-04T06:24:20;0.90;;;0.80;;
3547;SDS011;1788;49.400;11.092;2024-02-04T06:26:47;0.97;;;0.87;;
3547;SDS011;1788;49.400;11.092;2024-02-04T06:29:13;1.30;;;1.20;;
3547;SDS011;1788;49.400;11.092;2024-02-04T06:31:43;1.10;;;1.00;;
3547;SDS011;1788;49.400;11.092;2024-02-04T06:34:08;1.13;;;1.03;;
3547;SDS011;1788;49.400;11.092;2024-02-04T06:36:34;1.40;;;0.70;;
3547;SDS011;1788;49.400;11.092;2024-02-04T06:39:02;0.80;;;0.70;;
3547;SDS011;1788;49.400;11.092;2024-02-04T06:41:28;1.20;;;1.10;;
3547;SDS011;1788;49.400;11.092;2024-02-04T06:43:55;1.00;;;0.90;;
3547;SDS011;1788;49.400;11.092;2024-02-04T06:48:48;1.10;;;1.00;;
3547;SDS011;1788;49.400;11.092;2024-02-04T06:51:15;1.00;;;0.90;;
3547;SDS011;1788;49.400;11.092;2024-02-04T06:53:42;1.43;;;0.90;;
3547;SDS011;1788;49.400;11.092;2024-02-04T06:56:09;0.90;;;0.80;;
3547;SDS011;1788;49.400;11.092;2024-02-04T07:01:02;1.23;;;1.13;;
3547;SDS011;1788;49.400;11.092;2024-02-04T07:03:29;0.90;;;0.80;;
3547;SDS011;1788;49.400;11.092;2024-02-04T07:05:57;1.00;;;0.90;;
3547;SDS011;1788;49.400;11.092;2024-02-04T07:08:23;0.87;;;0.77;;
3547;SDS011;1788;49.400;11.092;2024-02-04T07:10:50;0.80;;;0.70;;
3547;SDS011;1788;49.400;11.092;2024-02-04T07:13:17;0.90;;;0.80;;
3547;SDS011;1788;49.400;11.092;2024-02-04T07:15:44;0.90;;;0.80;;
3547;SDS011;1788;49.400;11.092;2024-02-04T07:18:11;0.80;;;0.70;;
3547;SDS011;1788;49.400;11.092;2024-02-04T07:20:37;0.70;;;0.60;;
3547;SDS011;1788;49.400;11.092;2024-02-04T07:23:05;0.97;;;0.90;;
3547;SDS011;1788;49.400;11.092;2024-02-04T07:25:31;1.10;;;1.00;;
3547;SDS011;1788;49.400;11.092;2024-02-04T07:27:58;0.77;;;0.67;;
3547;SDS011;1788;49.400;11.092;2024-02-04T07:30:25;0.70;;;0.60;;
3547;SDS011;1788;49.400;11.092;2024-02-04T07:32:51;0.80;;;0.70;;
3547;SDS011;1788;49.400;11.092;2024-02-04T07:35:18;1.00;;;0.90;;
3547;SDS011;1788;49.400;11.092;2024-02-04T07:37:45;0.80;;;0.70;;
3547;SDS011;1788;49.400;11.092;2024-02-04T07:40:12;0.90;;;0.87;;
3547;SDS011;1788;49.400;11.092;2024-02-04T07:42:39;2.93;;;2.37;;
3547;SDS011;1788;49.400;11.092;2024-02-04T07:45:05;1.70;;;1.60;;
3547;SDS011;1788;49.400;11.092;2024-02-04T07:47:34;1.10;;;1.00;;
3547;SDS011;1788;49.400;11.092;2024-02-04T07:50:00;0.80;;;0.70;;
3547;SDS011;1788;49.400;11.092;2024-02-04T07:52:27;0.87;;;0.63;;
3547;SDS011;1788;49.400;11.092;2024-02-04T07:54:55;0.97;;;0.87;;
3547;SDS011;1788;49.400;11.092;2024-02-04T07:57:22;0.90;;;0.80;;
3547;SDS011;1788;49.400;11.092;2024-02-04T07:59:48;0.90;;;0.80;;
3547;SDS011;1788;49.400;11.092;2024-02-04T08:02:15;0.90;;;0.80;;
3547;SDS011;1788;49.400;11.092;2024-02-04T08:04:42;0.90;;;0.80;;
3547;SDS011;1788;49.400;11.092;2024-02-04T08:07:09;1.00;;;0.90;;
3547;SDS011;1788;49.400;11.092;2024-02-04T08:09:35;1.27;;;1.03;;
3547;SDS011;1788;49.400;11.092;2024-02-04T08:12:03;0.77;;;0.67;;
3547;SDS011;1788;49.400;11.092;2024-02-04T08:14:30;0.90;;;0.80;;
3547;SDS011;1788;49.400;11.092;2024-02-04T08:16:57;0.97;;;0.87;;
3547;SDS011;1788;49.400;11.092;2024-02-04T08:19:24;0.80;;;0.70;;
3547;SDS011;1788;49.400;11.092;2024-02-04T08:21:50;0.67;;;0.57;;
3547;SDS011;1788;49.400;11.092;2024-02-04T08:24:17;0.73;;;0.60;;
3547;SDS011;1788;49.400;11.092;2024-02-04T08:26:45;1.00;;;0.90;;
3547;SDS011;1788;49.400;11.092;2024-02-04T08:29:11;0.70;;;0.60;;
3547;SDS011;1788;49.400;11.092;2024-02-04T08:31:38;0.63;;;0.53;;
3547;SDS011;1788;49.400;11.092;2024-02-04T08:34:04;0.90;;;0.80;;
3547;SDS011;1788;49.400;11.092;2024-02-04T08:36:32;0.70;;;0.60;;
3547;SDS011;1788;49.400;11.092;2024-02-04T08:38:58;0.90;;;0.83;;
3547;SDS011;1788;49.400;11.092;2024-02-04T08:41:25;1.40;;;1.00;;
3547;SDS011;1788;49.400;11.092;2024-02-04T08:43:52;0.93;;;0.83;;
3547;SDS011;1788;49.400;11.092;2024-02-04T08:46:19;1.00;;;0.90;;
3547;SDS011;1788;49.400;11.092;2024-02-04T08:48:45;0.80;;;0.70;;
3547;SDS011;1788;49.400;11.092;2024-02-04T08:51:13;1.00;;;0.90;;
3547;SDS011;1788;49.400;11.092;2024-02-04T08:53:39;0.97;;;0.87;;
3547;SDS011;1788;49.400;11.092;2024-02-04T08:56:07;0.73;;;0.63;;
3547;SDS011;1788;49.400;11.092;2024-02-04T08:58:34;1.33;;;1.23;;
3547;SDS011;1788;49.400;11.092;2024-02-04T09:01:01;0.80;;;0.70;;
3547;SDS011;1788;49.400;11.092;2024-02-04T09:03:28;0.80;;;0.70;;
3547;SDS011;1788;49.400;11.092;2024-02-04T09:05:55;0.80;;;0.70;;
3547;SDS011;1788;49.400;11.092;2024-02-04T09:08:22;0.73;;;0.57;;
3547;SDS011;1788;49.400;11.092;2024-02-04T09:10:49;0.77;;;0.60;;
3547;SDS011;1788;49.400;11.092;2024-02-04T09:13:16;0.83;;;0.73;;
3547;SDS011;1788;49.400;11.092;2024-02-04T09:15:43;2.33;;;0.73;;
3547;SDS011;1788;49.400;11.092;2024-02-04T09:18:09;0.50;;;0.40;;
3547;SDS011;1788;49.400;11.092;2024-02-04T09:20:37;0.70;;;0.60;;
3547;SDS011;1788;49.400;11.092;2024-02-04T09:23:04;1.10;;;1.00;;
3547;SDS011;1788;49.400;11.092;2024-02-04T09:25:30;0.83;;;0.73;;
3547;SDS011;1788;49.400;11.092;2024-02-04T09:27:57;0.70;;;0.60;;
3547;SDS011;1788;49.400;11.092;2024-02-04T09:30:24;0.70;;;0.60;;
3547;SDS011;1788;49.400;11.092;2024-02-04T09:32:52;0.67;;;0.57;;
3547;SDS011;1788;49.400;11.092;2024-02-04T09:35:19;0.80;;;0.70;;
3547;SDS011;1788;49.400;11.092;2024-02-04T09:37:46;0.87;;;0.73;;
3547;SDS011;1788;49.400;11.092;2024-02-04T09:40:13;0.70;;;0.60;;
3547;SDS011;1788;49.400;11.092;2024-02-04T09:42:41;0.80;;;0.70;;
3547;SDS011;1788;49.400;11.092;2024-02-04T09:45:08;1.20;;;0.60;;
3547;SDS011;1788;49.400;11.092;2024-02-04T09:47:36;1.00;;;0.93;;
3547;SDS011;1788;49.400;11.092;2024-02-04T09:50:02;1.17;;;1.03;;
3547;SDS011;1788;49.400;11.092;2024-02-04T09:52:29;1.00;;;0.93;;
3547;SDS011;1788;49.400;11.092;2024-02-04T09:54:57;0.50;;;0.40;;
3547;SDS011;1788;49.400;11.092;2024-02-04T09:57:22;1.27;;;0.57;;
3547;SDS011;1788;49.400;11.092;2024-02-04T09:59:49;0.80;;;0.70;;
3547;SDS011;1788;49.400;11.092;2024-02-04T10:02:15;0.97;;;0.60;;
3547;SDS011;1788;49.400;11.092;2024-02-04T10:04:43;0.83;;;0.70;;
3547;SDS011;1788;49.400;11.092;2024-02-04T10:07:10;2.43;;;1.80;;
3547;SDS011;1788;49.400;11.092;2024-02-04T10:09:37;0.90;;;0.80;;
3547;SDS011;1788;49.400;11.092;2024-02-04T10:12:04;0.83;;;0.80;;
3547;SDS011;1788;49.400;11.092;2024-02-04T10:14:30;0.80;;;0.70;;
3547;SDS011;1788;49.400;11.092;2024-02-04T10:16:57;0.73;;;0.63;;
3547;SDS011;1788;49.400;11.092;2024-02-04T10:19:24;0.90;;;0.80;;
3547;SDS011;1788;49.400;11.092;2024-02-04T10:24:17;0.67;;;0.57;;
3547;SDS011;1788;49.400;11.092;2024-02-04T10:26:44;0.77;;;0.67;;
3547;SDS011;1788;49.400;11.092;2024-02-04T10:29:11;0.90;;;0.80;;
3547;SDS011;1788;49.400;11.092;2024-02-04T10:31:38;0.70;;;0.60;;
3547;SDS011;1788;49.400;11.092;2024-02-04T10:34:05;0.87;;;0.80;;
3547;SDS011;1788;49.400;11.092;2024-02-04T10:36:34;1.03;;;0.93;;
3547;SDS011;1788;49.400;11.092;2024-02-04T10:39:01;1.10;;;1.00;;
3547;SDS011;1788;49.400;11.092;2024-02-04T10:41:27;2.43;;;1.90;;
3547;SDS011;1788;49.400;11.092;2024-02-04T10:43:55;1.00;;;0.90;;
3547;SDS011;1788;49.400;11.092;2024-02-04T10:46:22;1.37;;;1.00;;
3547;SDS011;1788;49.400;11.092;2024-02-04T10:48:51;0.80;;;0.70;;
3547;SDS011;1788;49.400;11.092;2024-02-04T10:51:16;1.50;;;0.67;;
3547;SDS011;1788;49.400;11.092;2024-02-04T10:53:44;0.87;;;0.77;;
3547;SDS011;1788;49.400;11.092;2024-02-04T10:56:13;0.80;;;0.70;;
3547;SDS011;1788;49.400;11.092;2024-02-04T10:58:36;0.60;;;0.50;;
3547;SDS011;1788;49.400;11.092;2024-02-04T11:01:03;1.00;;;0.90;;
3547;SDS011;1788;49.400;11.092;2024-02-04T11:03:30;0.80;;;0.70;;
3547;SDS011;1788;49.400;11.092;2024-02-04T11:05:56;0.67;;;0.57;;
3547;SDS011;1788;49.400;11.092;2024-02-04T11:08:24;0.93;;;0.83;;
3547;SDS011;1788;49.400;11.092;2024-02-04T11:10:51;2.50;;;1.40;;
3547;SDS011;1788;49.400;11.092;2024-02-04T11:13:19;0.80;;;0.70;;
3547;SDS011;1788;49.400;11.092;2024-02-04T11:15:45;0.70;;;0.60;;
3547;SDS011;1788;49.400;11.092;2024-02-04T11:28:02;0.57;;;0.47;;
3547;SDS011;1788;49.400;11.092;2024-02-04T11:32:55;0.70;;;0.60;;
3547;SDS011;1788;49.400;11.092;2024-02-04T11:35:23;0.70;;;0.60;;
3547;SDS011;1788;49.400;11.092;2024-02-04T11:37:49;1.70;;;0.50;;
3547;SDS011;1788;49.400;11.092;2024-02-04T11:40:16;0.70;;;0.60;;
3547;SDS011;1788;49.400;11.092;2024-02-04T11:42:45;0.80;;;0.70;;
3547;SDS011;1788;49.400;11.092;2024-02-04T11:45:12;0.80;;;0.70;;
3547;SDS011;1788;49.400;11.092;2024-02-04T11:47:39;0.60;;;0.50;;
3547;SDS011;1788;49.400;11.092;2024-02-04T11:50:05;0.90;;;0.83;;
3547;SDS011;1788;49.400;11.092;2024-02-04T11:52:33;0.70;;;0.60;;
3547;SDS011;1788;49.400;11.092;2024-02-04T11:54:59;0.70;;;0.60;;
3547;SDS011;1788;49.400;11.092;2024-02-04T11:57:26;1.27;;;0.70;;
3547;SDS011;1788;49.400;11.092;2024-02-04T11:59:53;0.80;;;0.70;;
3547;SDS011;1788;49.400;11.092;2024-02-04T12:02:19;3.67;;;1.00;;
3547;SDS011;1788;49.400;11.092;2024-02-04T12:07:13;0.80;;;0.70;;
3547;SDS011;1788;49.400;11.092;2024-02-04T12:09:42;1.23;;;1.13;;
3547;SDS011;1788;49.400;11.092;2024-02-04T12:12:09;0.87;;;0.77;;
3547;SDS011;1788;49.400;11.092;2024-02-04T12:14:35;0.70;;;0.60;;
3547;SDS011;1788;49.400;11.092;2024-02-04T12:17:06;2.57;;;2.07;;
3547;SDS011;1788;49.400;11.092;2024-02-04T12:19:28;0.60;;;0.50;;
3547;SDS011;1788;49.400;11.092;2024-02-04T12:21:55;0.80;;;0.70;;
3547;SDS011;1788;49.400;11.092;2024-02-04T12:24:22;0.63;;;0.53;;
3547;SDS011;1788;49.400;11.092;2024-02-04T12:26:50;0.70;;;0.60;;
3547;SDS011;1788;49.400;11.092;2024-02-04T12:29:16;2.20;;;1.00;;
3547;SDS011;1788;49.400;11.092;2024-02-04T12:31:44;0.80;;;0.70;;
3547;SDS011;1788;49.400;11.092;2024-02-04T12:34:12;0.80;;;0.70;;
3547;SDS011;1788;49.400;11.092;2024-02-04T12:36:38;1.20;;;1.10;;
3547;SDS011;1788;49.400;11.092;2024-02-04T12:39:05;0.73;;;0.63;;
3547;SDS011;1788;49.400;11.092;2024-02-04T12:41:34;0.77;;;0.70;;
3547;SDS011;1788;49.400;11.092;2024-02-04T12:44:02;0.97;;;0.90;;
3547;SDS011;1788;49.400;11.092;2024-02-04T12:46:28;0.93;;;0.83;;
3547;SDS011;1788;49.400;11.092;2024-02-04T12:48:56;1.37;;;0.83;;
3547;SDS011;1788;49.400;11.092;2024-02-04T12:53:48;0.90;;;0.80;;
3547;SDS011;1788;49.400;11.092;2024-02-04T12:56:16;0.80;;;0.70;;
3547;SDS011;1788;49.400;11.092;2024-02-04T12:58:44;0.80;;;0.70;;
3547;SDS011;1788;49.400;11.092;2024-02-04T13:01:11;0.70;;;0.70;;
3547;SDS011;1788;49.400;11.092;2024-02-04T13:03:39;0.87;;;0.73;;
3547;SDS011;1788;49.400;11.092;2024-02-04T13:06:05;1.00;;;0.90;;
3547;SDS011;1788;49.400;11.092;2024-02-04T13:08:34;0.80;;;0.70;;
3547;SDS011;1788;49.400;11.092;2024-02-04T13:11:01;0.90;;;0.80;;
3547;SDS011;1788;49.400;11.092;2024-02-04T13:13:31;0.67;;;0.57;;
3547;SDS011;1788;49.400;11.092;2024-02-04T13:15:57;0.90;;;0.67;;
3547;SDS011;1788;49.400;11.092;2024-02-04T13:18:25;0.70;;;0.60;;
3547;SDS011;1788;49.400;11.092;2024-02-04T13:20:51;0.93;;;0.83;;
3547;SDS011;1788;49.400;11.092;2024-02-04T13:23:19;0.73;;;0.63;;
3547;SDS011;1788;49.400;11.092;2024-02-04T13:25:45;0.77;;;0.70;;
3547;SDS011;1788;49.400;11.092;2024-02-04T13:28:12;0.53;;;0.43;;
3547;SDS011;1788;49.400;11.092;2024-02-04T13:30:39;0.63;;;0.53;;
3547;SDS011;1788;49.400;11.092;2024-02-04T13:33:05;0.60;;;0.50;;
3547;SDS011;1788;49.400;11.092;2024-02-04T13:35:36;0.70;;;0.60;;
3547;SDS011;1788;49.400;11.092;2024-02-04T13:38:03;0.50;;;0.40;;
3547;SDS011;1788;49.400;11.092;2024-02-04T13:40:30;1.17;;;1.13;;
3547;SDS011;1788;49.400;11.092;2024-02-04T13:42:57;1.00;;;0.90;;
3547;SDS011;1788;49.400;11.092;2024-02-04T13:45:24;1.47;;;0.80;;
3547;SDS011;1788;49.400;11.092;2024-02-04T13:47:52;2.00;;;1.87;;
3547;SDS011;1788;49.400;11.092;2024-02-04T13:50:18;1.33;;;1.00;;
3547;SDS011;1788;49.400;11.092;2024-02-04T13:52:45;1.23;;;1.17;;
3547;SDS011;1788;49.400;11.092;2024-02-04T13:55:12;1.97;;;1.87;;
3547;SDS011;1788;49.400;11.092;2024-02-04T13:57:39;0.83;;;0.73;;
3547;SDS011;1788;49.400;11.092;2024-02-04T14:00:07;1.13;;;1.03;;
3547;SDS011;1788;49.400;11.092;2024-02-04T14:02:33;0.67;;;0.57;;
3547;SDS011;1788;49.400;11.092;2024-02-04T14:05:00;0.97;;;0.87;;
3547;SDS011;1788;49.400;11.092;2024-02-04T14:07:26;1.20;;;1.00;;
3547;SDS011;1788;49.400;11.092;2024-02-04T14:09:54;1.00;;;0.90;;
3547;SDS011;1788;49.400;11.092;2024-02-04T14:12:23;0.77;;;0.67;;
3547;SDS011;1788;49.400;11.092;2024-02-04T14:14:51;0.93;;;0.70;;
3547;SDS011;1788;49.400;11.092;2024-02-04T14:17:19;0.83;;;0.60;;
3547;SDS011;1788;49.400;11.092;2024-02-04T14:19:44;1.90;;;1.57;;
3547;SDS011;1788;49.400;11.092;2024-02-04T14:22:12;2.00;;;1.30;;
3547;SDS011;1788;49.400;11.092;2024-02-04T14:24:39;1.10;;;1.00;;
3547;SDS011;1788;49.400;11.092;2024-02-04T14:27:06;1.33;;;1.10;;
3547;SDS011;1788;49.400;11.092;2024-02-04T14:29:32;2.53;;;1.83;;
3547;SDS011;1788;49.400;11.092;2024-02-04T14:31:59;0.90;;;0.80;;
3547;SDS011;1788;49.400;11.092;2024-02-04T14:34:26;1.10;;;1.00;;
3547;SDS011;1788;49.400;11.092;2024-02-04T14:36:54;0.90;;;0.80;;
3547;SDS011;1788;49.400;11.092;2024-02-04T14:39:20;1.00;;;0.90;;
3547;SDS011;1788;49.400;11.092;2024-02-04T14:41:47;1.00;;;0.90;;
3547;SDS011;1788;49.400;11.092;2024-02-04T14:44:13;1.27;;;1.17;;
3547;SDS011;1788;49.400;11.092;2024-02-04T14:46:40;1.00;;;0.90;;
3547;SDS011;1788;49.400;11.092;2024-02-04T14:49:10;1.23;;;1.13;;
3547;SDS011;1788;49.400;11.092;2024-02-04T14:54:04;1.30;;;1.20;;
3547;SDS011;1788;49.400;11.092;2024-02-04T14:56:36;1.40;;;1.30;;
3547;SDS011;1788;49.400;11.092;2024-02-04T14:58:57;1.00;;;0.90;;
3547;SDS011;1788;49.400;11.092;2024-02-04T15:01:25;1.77;;;1.63;;
3547;SDS011;1788;49.400;11.092;2024-02-04T15:03:51;2.30;;;2.10;;
3547;SDS011;1788;49.400;11.092;2024-02-04T15:06:18;1.40;;;1.30;;
3547;SDS011;1788;49.400;11.092;2024-02-04T15:08:45;1.40;;;1.30;;
3547;SDS011;1788;49.400;11.092;2024-02-04T15:11:12;1.33;;;1.23;;
3547;SDS011;1788;49.400;11.092;2024-02-04T15:13:38;2.13;;;1.23;;
3547;SDS011;1788;49.400;11.092;2024-02-04T15:16:06;1.03;;;0.93;;
3547;SDS011;1788;49.400;11.092;2024-02-04T15:18:33;1.40;;;1.20;;
3547;SDS011;1788;49.400;11.092;2024-02-04T15:21:00;2.00;;;1.90;;
3547;SDS011;1788;49.400;11.092;2024-02-04T15:23:27;1.80;;;1.20;;
3547;SDS011;1788;49.400;11.092;2024-02-04T15:25:53;0.90;;;0.80;;
3547;SDS011;1788;49.400;11.092;2024-02-04T15:28:20;1.40;;;1.30;;
3547;SDS011;1788;49.400;11.092;2024-02-04T15:30:47;1.43;;;1.37;;
3547;SDS011;1788;49.400;11.092;2024-02-04T15:33:13;1.07;;;0.97;;
3547;SDS011;1788;49.400;11.092;2024-02-04T15:35:41;1.13;;;1.13;;
3547;SDS011;1788;49.400;11.092;2024-02-04T15:38:07;1.37;;;1.27;;